Time;durP1;ratioP1;P1;durP2;ratioP2;P2;SDS_P1;SDS_P2;PMS_P1;PMS_P2;Temp;Humidity;BMP_temperature;BMP_pressure;BME280_temperature;BME280_humidity;BME280_pressure;Samples;Min_cycle;Max_cycle;Signal;HPM_P1;HPM_P2
2022/03/15 00:00:32;;;;;;;20.58;8.48;;;;;;;;;;4937075;28;94609;-74
2022/03/15 00:02:59;;;;;;;17.67;8.27;;;;;;;;;;4937954;28;93611;-74
2022/03/15 00:05:26;;;;;;;11.00;7.85;;;;;;;;;;4938348;28;92260;-73
2022/03/15 00:07:52;;;;;;;13.82;8.25;;;;;;;;;;4937806;28;93326;-73
2022/03/15 00:10:19;;;;;;;18.70;8.50;;;;;;;;;;4941070;28;93629;-74
2022/03/15 00:12:46;;;;;;;17.33;8.38;;;;;;;;;;4938264;28;93265;-73
2022/03/15 00:15:13;;;;;;;16.02;8.57;;;;;;;;;;4938039;28;93772;-75
2022/03/15 00:17:41;;;;;;;14.90;8.38;;;;;;;;;;4938790;28;91511;-73
2022/03/15 00:20:08;;;;;;;16.98;8.45;;;;;;;;;;4938401;28;92335;-74
2022/03/15 00:22:36;;;;;;;19.25;9.02;;;;;;;;;;4937509;28;94759;-74
2022/03/15 00:25:11;;;;;;;18.20;7.88;;;;;;;;;;4936503;28;94540;-75
2022/03/15 00:27:37;;;;;;;14.95;8.30;;;;;;;;;;4938032;28;95960;-75
2022/03/15 00:30:05;;;;;;;12.68;7.82;;;;;;;;;;4936613;28;94522;-75
2022/03/15 00:32:32;;;;;;;17.30;8.55;;;;;;;;;;4946617;28;92277;-74
2022/03/15 00:34:59;;;;;;;14.13;8.85;;;;;;;;;;4939785;28;92659;-76
2022/03/15 00:37:27;;;;;;;14.18;8.90;;;;;;;;;;4942258;28;92507;-77
2022/03/15 00:39:53;;;;;;;18.70;8.60;;;;;;;;;;4946672;28;93416;-74
2022/03/15 00:42:20;;;;;;;13.18;8.02;;;;;;;;;;4947638;28;93053;-75
2022/03/15 00:44:46;;;;;;;14.23;8.25;;;;;;;;;;4941301;28;92254;-75
2022/03/15 00:47:13;;;;;;;24.90;9.52;;;;;;;;;;4941430;28;93156;-76
2022/03/15 00:49:40;;;;;;;20.42;9.05;;;;;;;;;;4937649;28;98422;-75
2022/03/15 00:52:06;;;;;;;17.40;8.88;;;;;;;;;;4939893;28;92404;-74
2022/03/15 00:54:33;;;;;;;16.95;9.32;;;;;;;;;;4942784;28;94627;-73
2022/03/15 00:56:59;;;;;;;16.88;8.82;;;;;;;;;;4939865;28;92305;-74
2022/03/15 00:59:25;;;;;;;19.35;8.52;;;;;;;;;;4939675;28;94944;-74
2022/03/15 01:01:52;;;;;;;23.80;9.20;;;;;;;;;;4940758;28;93528;-74
2022/03/15 01:04:19;;;;;;;16.33;8.98;;;;;;;;;;4940557;28;92360;-76
2022/03/15 01:06:46;;;;;;;14.85;8.95;;;;;;;;;;4939986;28;95509;-74
2022/03/15 01:09:13;;;;;;;19.67;9.65;;;;;;;;;;4940777;28;93541;-75
2022/03/15 01:11:39;;;;;;;19.63;8.20;;;;;;;;;;4939598;28;92386;-75
2022/03/15 01:14:07;;;;;;;16.40;8.27;;;;;;;;;;4942044;28;94815;-75
2022/03/15 01:16:34;;;;;;;17.42;8.90;;;;;;;;;;4939557;28;92382;-75
2022/03/15 01:19:00;;;;;;;14.70;7.80;;;;;;;;;;4939334;28;95599;-75
2022/03/15 01:21:27;;;;;;;24.75;8.13;;;;;;;;;;4939161;28;94854;-73
2022/03/15 01:23:54;;;;;;;14.43;8.55;;;;;;;;;;4940634;28;92462;-75
2022/03/15 01:26:20;;;;;;;12.50;8.02;;;;;;;;;;4940491;28;93307;-75
2022/03/15 01:28:49;;;;;;;12.98;7.15;;;;;;;;;;4940414;28;93047;-74
2022/03/15 01:31:15;;;;;;;15.32;7.85;;;;;;;;;;4940718;28;91639;-75
2022/03/15 01:33:42;;;;;;;19.77;8.15;;;;;;;;;;4939861;28;93176;-74
2022/03/15 01:36:08;;;;;;;16.92;7.72;;;;;;;;;;4942374;28;95740;-75
2022/03/15 01:38:36;;;;;;;18.02;7.57;;;;;;;;;;4938759;28;94737;-74
2022/03/15 01:41:02;;;;;;;13.00;8.70;;;;;;;;;;4940117;28;93645;-74
2022/03/15 01:43:28;;;;;;;18.05;8.15;;;;;;;;;;4939286;28;92541;-73
2022/03/15 01:45:55;;;;;;;15.60;8.13;;;;;;;;;;4939577;28;93617;-75
2022/03/15 01:48:21;;;;;;;16.13;8.00;;;;;;;;;;4939664;28;93359;-74
2022/03/15 01:50:49;;;;;;;11.55;8.25;;;;;;;;;;4936943;28;92394;-74
2022/03/15 01:53:15;;;;;;;10.45;6.82;;;;;;;;;;4971338;28;96116;-74
2022/03/15 01:55:42;;;;;;;20.20;7.88;;;;;;;;;;4939370;28;93548;-74
2022/03/15 01:58:08;;;;;;;10.25;6.72;;;;;;;;;;4974293;28;92312;-75
2022/03/15 02:00:35;;;;;;;14.07;7.32;;;;;;;;;;4938172;28;94281;-74
2022/03/15 02:03:05;;;;;;;17.48;8.18;;;;;;;;;;4937224;28;94784;-74
2022/03/15 02:05:31;;;;;;;16.48;7.68;;;;;;;;;;4939870;28;95860;-74
2022/03/15 02:08:06;;;;;;;17.00;7.95;;;;;;;;;;4939412;28;94600;-75
2022/03/15 02:10:34;;;;;;;13.82;7.18;;;;;;;;;;4955143;28;92413;-75
2022/03/15 02:13:00;;;;;;;13.63;7.20;;;;;;;;;;4939048;28;93809;-74
2022/03/15 02:15:27;;;;;;;18.45;8.35;;;;;;;;;;4939172;28;94575;-74
2022/03/15 02:17:53;;;;;;;17.35;7.93;;;;;;;;;;4939849;28;92377;-75
2022/03/15 02:20:19;;;;;;;14.65;7.97;;;;;;;;;;4942891;28;93360;-74
2022/03/15 02:22:46;;;;;;;13.50;7.70;;;;;;;;;;4939838;28;92548;-74
2022/03/15 02:25:13;;;;;;;14.77;8.23;;;;;;;;;;4939730;28;93814;-73
2022/03/15 02:27:39;;;;;;;13.20;7.88;;;;;;;;;;4937431;28;96183;-74
2022/03/15 02:30:06;;;;;;;12.52;8.18;;;;;;;;;;4939844;28;92177;-75
2022/03/15 02:32:34;;;;;;;17.60;8.65;;;;;;;;;;4939762;28;92894;-74
2022/03/15 02:35:00;;;;;;;17.90;9.18;;;;;;;;;;4939370;28;92143;-74
2022/03/15 02:37:27;;;;;;;11.55;8.02;;;;;;;;;;4939429;28;92208;-74
2022/03/15 02:39:53;;;;;;;16.33;8.00;;;;;;;;;;4939641;28;92411;-75
2022/03/15 02:42:20;;;;;;;12.73;7.70;;;;;;;;;;4941917;28;93685;-74
2022/03/15 02:44:46;;;;;;;15.35;8.13;;;;;;;;;;4940045;28;93537;-75
2022/03/15 02:47:12;;;;;;;20.25;9.10;;;;;;;;;;4939102;28;93834;-74
2022/03/15 02:49:39;;;;;;;19.83;8.88;;;;;;;;;;4938935;28;92403;-75
2022/03/15 02:52:05;;;;;;;14.43;9.43;;;;;;;;;;4937545;28;94808;-74
2022/03/15 02:54:32;;;;;;;19.05;8.77;;;;;;;;;;4939202;28;93325;-74
2022/03/15 02:56:58;;;;;;;14.90;9.35;;;;;;;;;;4937816;28;93058;-74
2022/03/15 02:59:27;;;;;;;11.45;8.65;;;;;;;;;;4939073;28;93569;-74
2022/03/15 03:01:54;;;;;;;22.00;8.90;;;;;;;;;;4938831;28;93141;-75
2022/03/15 03:04:21;;;;;;;18.48;9.38;;;;;;;;;;4941811;28;92160;-74
2022/03/15 03:06:48;;;;;;;18.65;9.20;;;;;;;;;;4938968;28;93127;-74
2022/03/15 03:09:16;;;;;;;22.27;9.75;;;;;;;;;;4939139;28;92853;-74
2022/03/15 03:11:42;;;;;;;21.30;9.85;;;;;;;;;;4939033;28;92335;-74
2022/03/15 03:14:13;;;;;;;18.52;9.40;;;;;;;;;;4938869;28;93079;-74
2022/03/15 03:16:40;;;;;;;16.48;9.95;;;;;;;;;;4936150;28;94800;-74
2022/03/15 03:19:08;;;;;;;17.33;9.25;;;;;;;;;;4938793;28;96095;-74
2022/03/15 03:21:36;;;;;;;22.10;9.60;;;;;;;;;;4938757;28;92912;-74
2022/03/15 03:24:06;;;;;;;16.35;8.98;;;;;;;;;;4941497;28;92294;-74
2022/03/15 03:26:36;;;;;;;18.00;9.77;;;;;;;;;;4937297;28;94481;-74
2022/03/15 03:29:02;;;;;;;14.82;10.20;;;;;;;;;;4938932;28;92406;-73
2022/03/15 03:31:30;;;;;;;21.40;10.77;;;;;;;;;;4937902;28;93691;-74
2022/03/15 03:33:57;;;;;;;18.30;10.13;;;;;;;;;;4937902;28;93675;-75
2022/03/15 03:36:24;;;;;;;19.45;10.05;;;;;;;;;;4937851;28;92540;-74
2022/03/15 03:39:11;;;;;;;17.50;9.85;;;;;;;;;;4936535;28;95648;-74
2022/03/15 03:41:37;;;;;;;12.93;9.73;;;;;;;;;;4936215;28;95838;-74
2022/03/15 03:44:04;;;;;;;24.15;10.23;;;;;;;;;;4938864;28;92389;-74
2022/03/15 03:46:33;;;;;;;24.38;10.43;;;;;;;;;;4941777;28;92773;-73
2022/03/15 03:48:59;;;;;;;17.52;9.95;;;;;;;;;;4935501;28;93418;-75
2022/03/15 03:51:26;;;;;;;17.23;10.15;;;;;;;;;;4937547;28;92871;-74
2022/03/15 03:53:52;;;;;;;18.33;10.73;;;;;;;;;;4937685;28;93727;-74
2022/03/15 03:56:19;;;;;;;18.30;10.25;;;;;;;;;;4937678;28;92143;-74
2022/03/15 03:58:45;;;;;;;16.00;9.82;;;;;;;;;;4936791;28;95046;-74
2022/03/15 04:01:11;;;;;;;15.35;10.48;;;;;;;;;;4938011;28;93645;-75
2022/03/15 04:03:38;;;;;;;19.80;10.52;;;;;;;;;;4937458;28;92863;-75
2022/03/15 04:06:06;;;;;;;16.73;10.13;;;;;;;;;;4935706;28;94629;-75
2022/03/15 04:08:34;;;;;;;19.88;10.35;;;;;;;;;;4940467;28;93672;-75
2022/03/15 04:11:02;;;;;;;17.17;10.23;;;;;;;;;;4937495;28;93707;-74
2022/03/15 04:13:29;;;;;;;20.42;10.75;;;;;;;;;;4936704;28;93792;-74
2022/03/15 04:15:55;;;;;;;18.13;10.23;;;;;;;;;;4937297;28;92342;-75
2022/03/15 04:18:22;;;;;;;25.83;11.52;;;;;;;;;;4937145;28;93230;-75
2022/03/15 04:20:48;;;;;;;14.77;10.25;;;;;;;;;;4937219;28;93685;-74
2022/03/15 04:23:15;;;;;;;24.80;10.68;;;;;;;;;;4938064;28;92437;-75
2022/03/15 04:25:42;;;;;;;17.73;10.55;;;;;;;;;;4937393;28;92887;-74
2022/03/15 04:28:11;;;;;;;17.02;10.63;;;;;;;;;;4937096;28;93459;-74
2022/03/15 04:30:38;;;;;;;18.23;10.75;;;;;;;;;;4939032;28;94685;-74
2022/03/15 04:33:04;;;;;;;21.92;10.85;;;;;;;;;;4936557;28;93517;-74
2022/03/15 04:35:31;;;;;;;17.40;10.88;;;;;;;;;;4935921;28;92339;-75
2022/03/15 04:37:58;;;;;;;20.23;11.18;;;;;;;;;;4937066;28;93412;-74
2022/03/15 04:40:24;;;;;;;19.83;11.32;;;;;;;;;;4936957;28;93766;-74
2022/03/15 04:42:54;;;;;;;19.23;10.90;;;;;;;;;;4936414;28;92341;-74
2022/03/15 04:45:21;;;;;;;20.95;11.13;;;;;;;;;;4936869;28;93800;-74
2022/03/15 04:47:47;;;;;;;20.02;11.55;;;;;;;;;;4937167;28;91901;-74
2022/03/15 04:50:15;;;;;;;20.33;11.35;;;;;;;;;;4937022;28;92285;-74
2022/03/15 04:52:41;;;;;;;14.23;11.43;;;;;;;;;;4939871;28;93261;-74
2022/03/15 04:55:08;;;;;;;16.00;10.73;;;;;;;;;;4935444;28;94688;-74
2022/03/15 04:57:34;;;;;;;21.00;11.15;;;;;;;;;;4936382;28;95774;-75
2022/03/15 05:00:01;;;;;;;18.55;11.57;;;;;;;;;;4936719;28;93735;-73
2022/03/15 05:02:28;;;;;;;23.10;11.23;;;;;;;;;;4936866;28;92296;-73
2022/03/15 05:04:56;;;;;;;16.05;10.38;;;;;;;;;;4936902;28;92385;-74
2022/03/15 05:07:23;;;;;;;16.08;11.15;;;;;;;;;;4936784;28;93519;-74
2022/03/15 05:12:36;;;;;;;15.30;10.80;;;;;;;;;;4940384;28;92695;-74
2022/03/15 05:15:02;;;;;;;17.55;11.18;;;;;;;;;;4936587;28;92425;-73
2022/03/15 05:17:30;;;;;;;18.90;11.48;;;;;;;;;;4936625;28;93497;-73
2022/03/15 05:19:56;;;;;;;23.02;11.32;;;;;;;;;;4934798;28;95503;-74
2022/03/15 05:22:23;;;;;;;21.75;11.05;;;;;;;;;;4936614;28;92317;-73
2022/03/15 05:24:49;;;;;;;17.58;11.20;;;;;;;;;;4937634;28;93649;-74
2022/03/15 05:27:17;;;;;;;20.98;11.70;;;;;;;;;;4939493;28;92592;-74
2022/03/15 05:29:43;;;;;;;18.27;10.70;;;;;;;;;;4940012;28;92476;-73
2022/03/15 05:32:09;;;;;;;21.27;12.38;;;;;;;;;;4939965;28;93502;-72
2022/03/15 05:34:36;;;;;;;14.60;11.10;;;;;;;;;;4942773;28;93481;-74
2022/03/15 05:37:02;;;;;;;22.02;10.95;;;;;;;;;;4939808;28;93619;-76
2022/03/15 05:39:29;;;;;;;17.40;10.40;;;;;;;;;;4939092;28;93703;-74
2022/03/15 05:41:56;;;;;;;20.75;11.63;;;;;;;;;;4939539;28;92262;-74
2022/03/15 05:44:23;;;;;;;22.25;11.50;;;;;;;;;;4937875;28;94615;-74
2022/03/15 05:46:50;;;;;;;18.73;10.70;;;;;;;;;;4939646;28;93730;-75
2022/03/15 05:49:17;;;;;;;15.63;10.50;;;;;;;;;;4939944;28;92374;-75
2022/03/15 05:51:43;;;;;;;21.38;10.95;;;;;;;;;;4941542;28;93533;-75
2022/03/15 05:54:10;;;;;;;22.75;11.30;;;;;;;;;;4946562;28;92561;-75
2022/03/15 05:56:39;;;;;;;20.92;11.40;;;;;;;;;;4945119;28;92308;-74
2022/03/15 05:59:06;;;;;;;24.15;11.63;;;;;;;;;;4947668;28;93513;-75
2022/03/15 06:01:32;;;;;;;19.70;11.27;;;;;;;;;;4946799;28;91717;-75
2022/03/15 06:04:00;;;;;;;23.67;11.70;;;;;;;;;;4943861;28;93917;-75
2022/03/15 06:06:26;;;;;;;25.15;11.30;;;;;;;;;;4937974;28;97008;-75
2022/03/15 06:08:52;;;;;;;15.75;10.82;;;;;;;;;;4937555;28;94933;-73
2022/03/15 06:11:20;;;;;;;17.10;11.18;;;;;;;;;;4939105;28;95845;-74
2022/03/15 06:13:47;;;;;;;25.88;11.40;;;;;;;;;;4938702;28;94735;-74
2022/03/15 06:16:14;;;;;;;15.48;11.50;;;;;;;;;;4939174;28;92270;-74
2022/03/15 06:18:40;;;;;;;21.85;11.10;;;;;;;;;;4941698;28;94112;-73
2022/03/15 06:21:07;;;;;;;13.80;10.45;;;;;;;;;;4938508;28;92442;-74
2022/03/15 06:23:33;;;;;;;23.10;12.45;;;;;;;;;;4934867;28;95024;-74
2022/03/15 06:26:00;;;;;;;23.35;11.85;;;;;;;;;;4939262;28;93076;-73
2022/03/15 06:28:26;;;;;;;18.35;11.23;;;;;;;;;;4938784;28;92418;-73
2022/03/15 06:30:53;;;;;;;22.58;12.02;;;;;;;;;;4938856;28;93627;-74
2022/03/15 06:33:19;;;;;;;19.05;11.93;;;;;;;;;;4936698;28;96221;-73
2022/03/15 06:35:47;;;;;;;24.48;12.65;;;;;;;;;;4938095;28;92318;-73
2022/03/15 06:38:14;;;;;;;19.65;11.70;;;;;;;;;;4938702;28;92523;-74
2022/03/15 06:40:42;;;;;;;25.67;12.07;;;;;;;;;;4941540;28;93606;-74
2022/03/15 06:43:12;;;;;;;18.13;13.02;;;;;;;;;;4937857;28;93458;-74
2022/03/15 06:45:38;;;;;;;27.33;12.43;;;;;;;;;;4937462;28;93920;-73
2022/03/15 06:48:05;;;;;;;28.00;13.63;;;;;;;;;;4937688;28;92352;-74
2022/03/15 06:50:31;;;;;;;24.52;12.55;;;;;;;;;;4953848;28;94441;-74
2022/03/15 06:52:58;;;;;;;23.10;13.82;;;;;;;;;;4937460;28;94238;-75
2022/03/15 06:55:24;;;;;;;24.48;14.07;;;;;;;;;;4938358;28;92404;-73
2022/03/15 06:57:50;;;;;;;26.90;14.68;;;;;;;;;;4937130;28;94812;-73
2022/03/15 07:00:17;;;;;;;21.92;13.63;;;;;;;;;;4937327;28;93492;-74
2022/03/15 07:02:44;;;;;;;24.45;14.32;;;;;;;;;;4940831;28;92408;-72
2022/03/15 07:05:11;;;;;;;23.58;13.88;;;;;;;;;;4938516;28;93395;-75
2022/03/15 07:07:38;;;;;;;26.88;12.95;;;;;;;;;;4938308;28;92306;-74
2022/03/15 07:10:09;;;;;;;26.15;14.70;;;;;;;;;;4938384;28;93819;-74
2022/03/15 07:12:36;;;;;;;30.20;14.68;;;;;;;;;;4936795;28;94466;-75
2022/03/15 07:15:04;;;;;;;25.35;14.32;;;;;;;;;;4938577;28;91594;-74
2022/03/15 07:17:31;;;;;;;32.72;16.52;;;;;;;;;;4937744;28;93503;-74
2022/03/15 07:19:58;;;;;;;23.90;16.52;;;;;;;;;;4938303;28;93567;-74
2022/03/15 07:22:24;;;;;;;28.02;15.68;;;;;;;;;;4938556;28;95060;-74
2022/03/15 07:24:51;;;;;;;25.33;14.85;;;;;;;;;;4938129;28;93764;-75
2022/03/15 07:27:18;;;;;;;24.88;15.50;;;;;;;;;;4938058;28;92327;-75
2022/03/15 07:29:44;;;;;;;26.98;16.75;;;;;;;;;;4937559;28;93574;-74
2022/03/15 07:32:11;;;;;;;23.58;15.40;;;;;;;;;;4937620;28;93632;-74
2022/03/15 07:34:38;;;;;;;23.67;15.82;;;;;;;;;;4937934;28;92410;-74
2022/03/15 07:37:04;;;;;;;29.40;17.98;;;;;;;;;;4937406;28;94514;-75
2022/03/15 07:39:33;;;;;;;23.58;15.85;;;;;;;;;;4937906;28;93285;-74
2022/03/15 07:41:59;;;;;;;26.67;16.88;;;;;;;;;;4936888;28;92191;-73
2022/03/15 07:44:30;;;;;;;29.90;17.52;;;;;;;;;;4955117;28;96851;-73
2022/03/15 07:46:57;;;;;;;36.47;18.55;;;;;;;;;;4935217;28;94699;-73
2022/03/15 07:49:24;;;;;;;30.48;18.08;;;;;;;;;;4937079;28;97012;-73
2022/03/15 07:51:51;;;;;;;31.92;18.77;;;;;;;;;;4937559;28;92976;-72
2022/03/15 07:54:17;;;;;;;38.05;19.50;;;;;;;;;;4937529;28;92210;-73
2022/03/15 07:56:45;;;;;;;33.35;21.23;;;;;;;;;;4937467;28;92434;-72
2022/03/15 07:59:12;;;;;;;44.75;23.05;;;;;;;;;;4937036;28;93458;-71
2022/03/15 08:01:38;;;;;;;41.53;23.67;;;;;;;;;;4937297;28;92233;-74
2022/03/15 08:04:05;;;;;;;38.13;23.63;;;;;;;;;;4937277;28;93627;-74
2022/03/15 08:06:35;;;;;;;35.38;21.73;;;;;;;;;;4940470;28;93087;-73
2022/03/15 08:09:04;;;;;;;34.92;22.95;;;;;;;;;;4939314;28;93745;-72
2022/03/15 08:11:33;;;;;;;38.47;21.65;;;;;;;;;;4934529;28;95354;-71
2022/03/15 08:13:59;;;;;;;33.33;21.55;;;;;;;;;;4937163;28;92329;-71
2022/03/15 08:16:25;;;;;;;31.52;20.42;;;;;;;;;;4936142;28;94538;-71
2022/03/15 08:18:53;;;;;;;31.05;21.30;;;;;;;;;;4937088;28;94145;-71
2022/03/15 08:21:20;;;;;;;35.30;21.20;;;;;;;;;;4937068;28;92211;-71
2022/03/15 08:23:47;;;;;;;27.60;19.65;;;;;;;;;;4937224;28;92338;-72
2022/03/15 08:26:14;;;;;;;31.10;19.83;;;;;;;;;;4936706;28;93005;-71
2022/03/15 08:28:42;;;;;;;32.08;20.13;;;;;;;;;;4955923;28;91542;-72
2022/03/15 08:31:15;;;;;;;34.63;20.38;;;;;;;;;;4937029;28;93692;-72
2022/03/15 08:33:41;;;;;;;37.05;21.20;;;;;;;;;;4935757;28;92276;-74
2022/03/15 08:36:08;;;;;;;30.02;19.85;;;;;;;;;;4935168;28;95197;-73
2022/03/15 08:38:34;;;;;;;36.15;19.50;;;;;;;;;;4936420;28;92778;-74
2022/03/15 08:41:01;;;;;;;33.50;20.42;;;;;;;;;;4936924;28;92323;-74
2022/03/15 08:43:27;;;;;;;30.42;19.42;;;;;;;;;;4936014;28;93578;-71
2022/03/15 08:45:53;;;;;;;29.98;19.65;;;;;;;;;;4936925;28;93059;-73
2022/03/15 08:48:21;;;;;;;27.70;17.98;;;;;;;;;;4936719;28;92189;-74
2022/03/15 08:50:48;;;;;;;31.42;18.42;;;;;;;;;;4939522;28;94762;-72
2022/03/15 08:53:15;;;;;;;29.05;18.73;;;;;;;;;;4936051;28;91543;-74
2022/03/15 08:55:41;;;;;;;36.58;18.52;;;;;;;;;;4936484;28;93598;-72
2022/03/15 08:58:08;;;;;;;26.33;18.70;;;;;;;;;;4968184;28;94755;-72
2022/03/15 09:00:35;;;;;;;30.20;17.95;;;;;;;;;;4938443;28;95018;-75
2022/03/15 09:03:02;;;;;;;26.20;18.42;;;;;;;;;;4940220;28;95095;-73
2022/03/15 09:05:29;;;;;;;36.35;19.02;;;;;;;;;;4940104;28;92827;-73
2022/03/15 09:07:59;;;;;;;30.08;17.40;;;;;;;;;;4939986;28;92415;-72
2022/03/15 09:10:25;;;;;;;24.42;17.20;;;;;;;;;;4938825;28;94105;-72
2022/03/15 09:12:55;;;;;;;28.88;17.02;;;;;;;;;;4943002;28;93453;-72
2022/03/15 09:15:25;;;;;;;22.08;17.08;;;;;;;;;;4938907;28;92771;-69
2022/03/15 09:17:57;;;;;;;22.95;15.77;;;;;;;;;;4938728;28;94233;-69
2022/03/15 09:20:24;;;;;;;22.42;16.92;;;;;;;;;;4938915;28;92408;-71
2022/03/15 09:22:51;;;;;;;22.10;16.80;;;;;;;;;;4940125;28;93649;-68
2022/03/15 09:25:20;;;;;;;24.83;15.90;;;;;;;;;;4937437;28;95782;-69
2022/03/15 09:27:47;;;;;;;24.42;15.52;;;;;;;;;;4938766;28;93395;-70
2022/03/15 09:30:14;;;;;;;23.35;15.10;;;;;;;;;;4938894;28;93635;-70
2022/03/15 09:32:40;;;;;;;16.52;14.77;;;;;;;;;;4941756;28;93919;-70
2022/03/15 09:35:07;;;;;;;20.83;14.68;;;;;;;;;;4938402;28;94860;-70
2022/03/15 09:37:34;;;;;;;20.48;14.80;;;;;;;;;;4938925;28;94072;-69
2022/03/15 09:40:07;;;;;;;19.20;13.88;;;;;;;;;;4938586;28;92960;-69
2022/03/15 09:42:35;;;;;;;25.67;14.00;;;;;;;;;;4939190;28;92792;-69
2022/03/15 09:45:01;;;;;;;22.13;14.30;;;;;;;;;;4938779;28;93759;-69
2022/03/15 09:47:31;;;;;;;26.50;13.70;;;;;;;;;;4937776;28;92426;-70
2022/03/15 09:49:58;;;;;;;22.10;13.57;;;;;;;;;;4936579;28;96069;-73
2022/03/15 09:52:27;;;;;;;22.10;14.30;;;;;;;;;;4940617;28;93194;-69
2022/03/15 09:54:54;;;;;;;19.58;14.73;;;;;;;;;;4921604;28;92352;-71
2022/03/15 09:57:21;;;;;;;22.55;15.05;;;;;;;;;;4938868;28;93706;-69
2022/03/15 09:59:49;;;;;;;26.88;15.48;;;;;;;;;;4938426;28;92491;-71
2022/03/15 10:02:16;;;;;;;23.52;16.23;;;;;;;;;;4940662;28;93483;-70
2022/03/15 10:04:43;;;;;;;26.25;15.52;;;;;;;;;;4938337;28;93551;-69
2022/03/15 10:07:11;;;;;;;31.45;15.60;;;;;;;;;;4938457;28;92440;-69
2022/03/15 10:09:38;;;;;;;25.63;15.68;;;;;;;;;;4938390;28;92789;-72
2022/03/15 10:12:04;;;;;;;26.60;15.27;;;;;;;;;;4940195;28;94703;-70
2022/03/15 10:14:45;;;;;;;24.15;15.18;;;;;;;;;;4936601;28;94768;-71
2022/03/15 10:17:14;;;;;;;23.42;15.18;;;;;;;;;;4941322;28;96022;-70
2022/03/15 10:19:54;;;;;;;23.63;14.32;;;;;;;;;;4938904;28;92327;-71
2022/03/15 10:22:24;;;;;;;25.02;14.38;;;;;;;;;;4942027;28;93871;-72
2022/03/15 10:24:52;;;;;;;21.00;13.70;;;;;;;;;;4938303;28;93914;-72
2022/03/15 10:27:19;;;;;;;17.35;13.52;;;;;;;;;;4937967;28;92358;-71
2022/03/15 10:29:47;;;;;;;16.33;12.90;;;;;;;;;;4938213;28;93478;-73
2022/03/15 10:32:14;;;;;;;20.92;13.10;;;;;;;;;;4941844;28;92832;-72
2022/03/15 10:34:41;;;;;;;22.25;13.45;;;;;;;;;;4938202;28;92363;-73
2022/03/15 10:37:07;;;;;;;22.90;13.05;;;;;;;;;;4961295;28;95410;-73
2022/03/15 10:39:34;;;;;;;19.60;12.82;;;;;;;;;;4939403;28;96113;-72
2022/03/15 10:42:02;;;;;;;22.33;12.85;;;;;;;;;;4937796;28;96407;-71
2022/03/15 10:44:29;;;;;;;14.73;12.43;;;;;;;;;;4937896;28;93431;-71
2022/03/15 10:46:57;;;;;;;17.65;12.10;;;;;;;;;;4937989;28;92318;-72
2022/03/15 10:49:24;;;;;;;21.70;12.90;;;;;;;;;;4937626;28;93194;-71
2022/03/15 10:51:51;;;;;;;15.55;12.23;;;;;;;;;;4937883;28;93232;-72
2022/03/15 10:54:24;;;;;;;22.90;12.77;;;;;;;;;;4937368;28;92219;-75
2022/03/15 10:56:52;;;;;;;15.70;11.90;;;;;;;;;;4938130;28;94012;-73
2022/03/15 10:59:19;;;;;;;18.65;12.15;;;;;;;;;;4937665;28;94552;-74
2022/03/15 11:01:46;;;;;;;19.15;12.25;;;;;;;;;;4941510;28;92312;-72
2022/03/15 11:04:14;;;;;;;21.75;11.88;;;;;;;;;;4935834;28;96134;-73
2022/03/15 11:06:43;;;;;;;20.85;12.95;;;;;;;;;;4940262;28;92381;-72
2022/03/15 11:09:21;;;;;;;25.20;13.15;;;;;;;;;;4940355;28;93315;-73
2022/03/15 11:11:53;;;;;;;23.23;13.55;;;;;;;;;;4943367;28;93820;-72
2022/03/15 11:14:28;;;;;;;13.67;12.17;;;;;;;;;;4942403;28;92485;-71
2022/03/15 11:16:55;;;;;;;25.70;12.80;;;;;;;;;;4939934;28;93773;-72
2022/03/15 11:19:25;;;;;;;21.05;12.43;;;;;;;;;;4937885;28;92938;-72
2022/03/15 11:21:52;;;;;;;18.48;11.90;;;;;;;;;;4939769;28;91676;-72
2022/03/15 11:24:23;;;;;;;20.42;12.70;;;;;;;;;;4940542;28;92381;-73
2022/03/15 11:26:50;;;;;;;20.33;12.18;;;;;;;;;;4937813;28;92306;-72
2022/03/15 11:29:19;;;;;;;15.52;12.65;;;;;;;;;;4935584;28;94673;-73
2022/03/15 11:31:45;;;;;;;15.55;11.40;;;;;;;;;;4937580;28;93115;-72
2022/03/15 11:34:12;;;;;;;17.55;10.70;;;;;;;;;;4937908;28;92440;-72
2022/03/15 11:36:39;;;;;;;18.27;10.30;;;;;;;;;;4937145;28;94800;-73
2022/03/15 11:39:05;;;;;;;15.23;9.32;;;;;;;;;;4936977;28;93934;-73
2022/03/15 11:41:33;;;;;;;14.65;9.80;;;;;;;;;;4937611;28;92314;-73
2022/03/15 11:44:05;;;;;;;16.63;10.40;;;;;;;;;;4943709;28;93460;-73
2022/03/15 11:46:35;;;;;;;19.52;10.20;;;;;;;;;;4936911;28;91656;-73
2022/03/15 11:49:17;;;;;;;16.88;10.27;;;;;;;;;;4936732;28;92669;-73
2022/03/15 11:51:50;;;;;;;15.52;11.18;;;;;;;;;;4937669;28;94153;-73
2022/03/15 11:54:22;;;;;;;16.63;9.55;;;;;;;;;;4936650;28;94695;-73
2022/03/15 11:56:53;;;;;;;12.88;9.70;;;;;;;;;;4937306;28;95896;-73
2022/03/15 11:59:19;;;;;;;14.95;9.82;;;;;;;;;;4937663;28;93213;-73
2022/03/15 12:01:48;;;;;;;24.52;10.32;;;;;;;;;;4938439;28;93368;-74
2022/03/15 12:04:18;;;;;;;17.33;11.07;;;;;;;;;;4938440;28;94064;-72
2022/03/15 12:06:54;;;;;;;16.75;11.32;;;;;;;;;;4940109;28;93432;-72
2022/03/15 12:09:21;;;;;;;18.20;10.45;;;;;;;;;;4936589;28;93328;-74
2022/03/15 12:11:58;;;;;;;19.98;11.02;;;;;;;;;;4937426;28;92226;-73
2022/03/15 12:14:32;;;;;;;17.92;10.07;;;;;;;;;;4936832;28;92257;-73
2022/03/15 12:16:59;;;;;;;15.52;10.20;;;;;;;;;;4936514;28;94402;-72
2022/03/15 12:19:39;;;;;;;18.90;9.88;;;;;;;;;;4934886;28;95374;-73
2022/03/15 12:22:08;;;;;;;15.00;10.07;;;;;;;;;;4934067;28;92478;-72
2022/03/15 12:24:39;;;;;;;19.95;10.25;;;;;;;;;;4928619;28;94358;-72
2022/03/15 12:27:21;;;;;;;13.13;9.93;;;;;;;;;;4932660;28;93967;-71
2022/03/15 12:29:52;;;;;;;19.42;10.18;;;;;;;;;;4941837;28;92323;-70
2022/03/15 12:32:18;;;;;;;12.70;8.68;;;;;;;;;;4937310;28;92836;-73
2022/03/15 12:34:49;;;;;;;14.98;7.65;;;;;;;;;;4940082;28;92253;-73
2022/03/15 12:37:16;;;;;;;74.88;47.20;;;;;;;;;;4941031;28;93681;-73
2022/03/15 12:39:52;;;;;;;17.02;6.80;;;;;;;;;;4939434;28;93706;-74
2022/03/15 12:42:21;;;;;;;14.15;6.45;;;;;;;;;;4941354;28;92406;-73
2022/03/15 12:44:49;;;;;;;9.55;6.10;;;;;;;;;;4938419;28;94817;-73
2022/03/15 12:47:19;;;;;;;11.60;6.88;;;;;;;;;;4939428;28;93664;-72
2022/03/15 12:50:04;;;;;;;10.88;6.20;;;;;;;;;;4936440;28;92404;-74
2022/03/15 12:52:38;;;;;;;10.73;6.57;;;;;;;;;;4943514;28;93118;-73
2022/03/15 12:55:05;;;;;;;12.55;6.35;;;;;;;;;;4939910;28;92314;-75
2022/03/15 12:57:33;;;;;;;13.35;7.15;;;;;;;;;;4940603;28;92953;-74
2022/03/15 13:00:00;;;;;;;11.85;7.88;;;;;;;;;;4940964;28;93221;-73
2022/03/15 13:02:29;;;;;;;14.95;7.63;;;;;;;;;;4944392;28;91676;-74
2022/03/15 13:04:57;;;;;;;10.63;6.78;;;;;;;;;;4939265;28;92338;-72
2022/03/15 13:07:29;;;;;;;10.90;6.22;;;;;;;;;;4940014;28;92927;-71
2022/03/15 13:10:00;;;;;;;13.98;6.13;;;;;;;;;;4958166;28;94865;-72
2022/03/15 13:12:32;;;;;;;12.32;6.82;;;;;;;;;;4937322;28;95984;-73
2022/03/15 13:14:59;;;;;;;8.00;6.70;;;;;;;;;;4941612;28;93738;-73
2022/03/15 13:17:30;;;;;;;13.32;6.55;;;;;;;;;;4939712;28;93405;-73
2022/03/15 13:19:58;;;;;;;14.43;6.95;;;;;;;;;;4937809;28;93162;-73
2022/03/15 13:22:28;;;;;;;9.70;6.63;;;;;;;;;;4938827;28;92460;-73
2022/03/15 13:24:55;;;;;;;12.30;6.80;;;;;;;;;;4936968;28;92881;-73
2022/03/15 13:27:22;;;;;;;10.70;7.20;;;;;;;;;;4939907;28;92523;-71
2022/03/15 13:29:48;;;;;;;11.30;7.70;;;;;;;;;;4939454;28;93207;-72
2022/03/15 13:32:21;;;;;;;9.57;7.03;;;;;;;;;;4940580;28;92732;-73
2022/03/15 13:34:53;;;;;;;16.13;7.22;;;;;;;;;;4937476;28;95561;-72
2022/03/15 13:37:20;;;;;;;11.77;7.20;;;;;;;;;;4941452;28;92439;-72
2022/03/15 13:39:46;;;;;;;10.32;6.47;;;;;;;;;;4938887;28;93675;-72
2022/03/15 13:42:15;;;;;;;12.88;6.80;;;;;;;;;;4939220;28;92422;-72
2022/03/15 13:44:48;;;;;;;9.65;6.80;;;;;;;;;;4938214;28;94195;-72
2022/03/15 13:47:15;;;;;;;11.40;6.35;;;;;;;;;;4936381;28;93673;-72
2022/03/15 13:49:45;;;;;;;9.95;6.82;;;;;;;;;;4938980;28;92420;-72
2022/03/15 13:52:13;;;;;;;12.43;7.25;;;;;;;;;;4958193;28;93934;-72
2022/03/15 13:54:50;;;;;;;8.80;6.38;;;;;;;;;;4939699;28;93744;-72
2022/03/15 13:57:23;;;;;;;7.80;5.80;;;;;;;;;;4940242;28;93311;-73
2022/03/15 13:59:56;;;;;;;15.05;6.20;;;;;;;;;;4935166;28;95659;-71
2022/03/15 14:02:23;;;;;;;12.43;6.45;;;;;;;;;;4939267;28;92392;-73
2022/03/15 14:04:59;;;;;;;9.63;6.63;;;;;;;;;;4938916;28;93428;-73
2022/03/15 14:07:25;;;;;;;13.25;6.75;;;;;;;;;;4939597;28;94455;-72
2022/03/15 14:10:02;;;;;;;11.43;6.47;;;;;;;;;;4940043;28;92144;-71
2022/03/15 14:12:29;;;;;;;10.40;6.43;;;;;;;;;;4939399;28;93162;-72
2022/03/15 14:14:57;;;;;;;12.30;6.20;;;;;;;;;;4939660;28;93090;-74
2022/03/15 14:17:49;;;;;;;9.95;6.47;;;;;;;;;;4939453;28;116064;-73
2022/03/15 14:20:31;;;;;;;18.92;6.03;;;;;;;;;;4943263;28;93083;-73
2022/03/15 14:22:59;;;;;;;7.95;6.25;;;;;;;;;;4939582;28;92377;-72
2022/03/15 14:25:27;;;;;;;11.52;6.05;;;;;;;;;;4938183;28;94654;-73
2022/03/15 14:28:04;;;;;;;11.38;6.18;;;;;;;;;;4939703;28;93000;-73
2022/03/15 14:30:31;;;;;;;15.15;5.65;;;;;;;;;;4939966;28;92209;-73